Time;durP1;ratioP1;P1;durP2;ratioP2;P2;SDS_P1;SDS_P2;PMS_P1;PMS_P2;Temp;Humidity;BMP_temperature;BMP_pressure;BME280_temperature;BME280_humidity;BME280_pressure;Samples;Min_cycle;Max_cycle;Signal;HPM_P1;HPM_P2
2021/12/21 00:00:37;;;;;;;13.13;6.43;;;-2.00;99.90;;;;;;5105559;28;20399;-63
2021/12/21 00:03:03;;;;;;;13.93;6.13;;;-2.00;99.90;;;;;;5106754;28;20052;-63
2021/12/21 00:05:29;;;;;;;13.48;6.38;;;-2.10;99.90;;;;;;5105287;28;20059;-63
2021/12/21 00:07:58;;;;;;;14.40;6.88;;;-2.20;99.90;;;;;;5104423;28;20108;-63
2021/12/21 00:10:29;;;;;;;15.63;7.68;;;-2.30;99.90;;;;;;5100870;28;20056;-63
2021/12/21 00:15:39;;;;;;;16.50;7.88;;;-2.20;99.90;;;;;;5105526;28;20518;-63
2021/12/21 00:26:14;;;;;;;11.30;6.97;;;-2.30;99.90;;;;;;5105742;28;20059;-63
2021/12/21 00:29:03;;;;;;;13.77;7.75;;;-2.30;99.90;;;;;;5098151;28;20048;-63
2021/12/21 00:31:32;;;;;;;10.55;7.28;;;-2.30;99.90;;;;;;5104441;28;20080;-63
2021/12/21 00:33:58;;;;;;;14.23;7.78;;;-2.30;99.90;;;;;;5103578;28;20144;-63
2021/12/21 00:36:26;;;;;;;12.80;7.47;;;-2.20;99.90;;;;;;5104314;28;20055;-63
2021/12/21 00:38:54;;;;;;;12.82;7.25;;;-2.20;99.90;;;;;;5121761;28;20230;-63
2021/12/21 00:41:20;;;;;;;13.15;6.90;;;-2.30;99.90;;;;;;5099476;28;20050;-63
2021/12/21 00:43:47;;;;;;;12.13;6.75;;;-2.30;99.90;;;;;;5103257;28;20119;-63
2021/12/21 00:46:14;;;;;;;11.63;6.70;;;-2.30;99.90;;;;;;5102461;28;20044;-63
2021/12/21 00:48:48;;;;;;;14.07;7.00;;;-2.30;99.90;;;;;;5104479;28;20052;-63
2021/12/21 00:51:15;;;;;;;12.07;6.60;;;-2.30;99.90;;;;;;5104309;28;20051;-63
2021/12/21 00:53:41;;;;;;;10.27;6.47;;;-2.40;99.90;;;;;;5103928;28;20127;-63
2021/12/21 00:56:08;;;;;;;13.55;8.23;;;-2.40;99.90;;;;;;5106667;28;20039;-63
2021/12/21 00:58:33;;;;;;;13.27;7.88;;;-2.40;99.90;;;;;;5104837;28;20098;-63
2021/12/21 01:01:03;;;;;;;11.98;7.63;;;-2.30;99.90;;;;;;5105975;28;20047;-63
2021/12/21 01:03:29;;;;;;;14.70;8.77;;;-2.30;99.90;;;;;;5104410;28;20065;-63
2021/12/21 01:06:10;;;;;;;10.93;7.45;;;-2.30;99.90;;;;;;5104288;28;20052;-63
2021/12/21 01:08:53;;;;;;;12.80;8.13;;;-2.30;99.90;;;;;;5103448;28;20432;-63
2021/12/21 01:11:24;;;;;;;14.00;8.60;;;-2.30;99.90;;;;;;5103605;28;20063;-63
2021/12/21 01:16:36;;;;;;;13.93;8.55;;;-2.30;99.90;;;;;;5102930;28;20089;-63
2021/12/21 01:21:32;;;;;;;15.82;8.40;;;-2.40;99.90;;;;;;5103653;28;20056;-63
2021/12/21 01:26:55;;;;;;;11.00;7.55;;;-2.40;99.90;;;;;;5102659;28;20123;-63
2021/12/21 01:30:25;;;;;;;11.60;7.15;;;-2.40;99.90;;;;;;5105374;28;20059;-63
2021/12/21 01:32:38;;;;;;;13.65;7.80;;;-2.40;99.90;;;;;;5090117;28;20109;-63
2021/12/21 01:35:17;;;;;;;13.25;7.68;;;-2.50;99.90;;;;;;5102181;28;20059;-63
2021/12/21 01:37:58;;;;;;;16.33;7.95;;;-2.60;99.90;;;;;;5105985;28;20056;-63
2021/12/21 01:40:45;;;;;;;15.07;7.53;;;-2.50;99.90;;;;;;5105579;28;20059;-63
2021/12/21 01:43:18;;;;;;;14.82;7.53;;;-2.60;99.90;;;;;;5102316;28;20036;-63
2021/12/21 01:51:15;;;;;;;12.77;7.57;;;-2.70;99.90;;;;;;5100592;28;20051;-63
2021/12/21 01:53:42;;;;;;;14.07;7.80;;;-2.70;99.90;;;;;;5103792;28;20048;-63
2021/12/21 01:56:08;;;;;;;12.85;8.50;;;-2.70;99.90;;;;;;5105575;28;20099;-63
2021/12/21 01:58:37;;;;;;;13.35;8.48;;;-2.70;99.90;;;;;;5103017;28;20044;-63
2021/12/21 02:01:05;;;;;;;13.48;7.78;;;-2.60;99.90;;;;;;5087045;28;20052;-63
2021/12/21 02:03:31;;;;;;;12.60;7.70;;;-2.60;99.90;;;;;;5102692;28;20044;-63
2021/12/21 02:05:57;;;;;;;12.57;7.40;;;-2.60;99.90;;;;;;5106651;28;20045;-63
2021/12/21 02:08:23;;;;;;;15.48;8.55;;;-2.60;99.90;;;;;;5105557;28;20044;-63
2021/12/21 02:10:48;;;;;;;12.90;7.75;;;-2.50;99.90;;;;;;5101962;28;20116;-63
2021/12/21 02:13:15;;;;;;;13.73;7.78;;;-2.50;99.90;;;;;;5107517;28;20048;-63
2021/12/21 02:15:40;;;;;;;11.35;7.85;;;-2.50;99.90;;;;;;5123504;28;20075;-63
2021/12/21 02:21:17;;;;;;;13.32;7.38;;;-2.50;99.90;;;;;;5087585;28;20052;-63
2021/12/21 02:23:44;;;;;;;9.60;6.00;;;-2.50;99.90;;;;;;5107305;28;20047;-63
2021/12/21 02:29:12;;;;;;;13.45;6.68;;;-2.60;99.90;;;;;;5108272;28;20051;-63
2021/12/21 02:31:40;;;;;;;11.52;7.60;;;-2.70;99.90;;;;;;5107124;28;20048;-63
2021/12/21 02:34:07;;;;;;;10.13;6.82;;;-2.50;99.90;;;;;;5103055;28;20053;-63
2021/12/21 02:36:33;;;;;;;9.70;6.35;;;-2.60;99.90;;;;;;5106549;28;20055;-63
2021/12/21 02:39:00;;;;;;;12.40;6.50;;;-2.50;99.90;;;;;;5107769;28;20097;-63
2021/12/21 02:41:26;;;;;;;10.65;6.35;;;-2.40;99.90;;;;;;5104587;28;20040;-63
2021/12/21 02:43:55;;;;;;;9.23;6.18;;;-2.60;99.90;;;;;;5110588;28;20199;-63
2021/12/21 02:46:24;;;;;;;9.40;6.10;;;-2.60;99.90;;;;;;5108305;28;20066;-63
2021/12/21 02:48:50;;;;;;;11.93;5.85;;;-2.60;99.90;;;;;;5106858;28;20094;-63
2021/12/21 02:51:16;;;;;;;7.95;6.60;;;-2.60;99.90;;;;;;5104907;28;20048;-63
2021/12/21 02:53:44;;;;;;;13.45;6.13;;;-2.60;99.90;;;;;;5107288;28;20101;-63
2021/12/21 02:56:10;;;;;;;10.07;6.65;;;-2.60;99.90;;;;;;5105461;28;20040;-63
2021/12/21 02:58:36;;;;;;;10.20;6.05;;;-2.60;99.90;;;;;;5106654;28;20381;-63
2021/12/21 03:01:04;;;;;;;10.90;5.95;;;-2.60;99.90;;;;;;5107777;28;20043;-63
2021/12/21 03:03:30;;;;;;;9.90;6.45;;;-2.70;99.90;;;;;;5107598;28;20119;-63
2021/12/21 03:05:58;;;;;;;10.00;6.32;;;-2.60;99.90;;;;;;5106374;28;20503;-63
2021/12/21 03:08:35;;;;;;;9.15;5.90;;;-2.60;99.90;;;;;;5115783;28;20074;-63
2021/12/21 03:11:20;;;;;;;9.18;5.65;;;-2.60;99.90;;;;;;5106515;28;20458;-63
2021/12/21 03:14:03;;;;;;;7.00;5.53;;;-2.60;99.90;;;;;;5104245;28;20083;-63
2021/12/21 03:16:33;;;;;;;10.15;5.63;;;-2.60;99.90;;;;;;5107427;28;20055;-63
2021/12/21 03:18:59;;;;;;;10.43;5.80;;;-2.60;99.90;;;;;;5088224;28;20047;-63
2021/12/21 03:21:26;;;;;;;10.57;6.63;;;-2.60;99.90;;;;;;5106074;28;20055;-63
2021/12/21 03:23:52;;;;;;;11.20;5.30;;;-2.60;99.90;;;;;;5105285;28;20066;-63
2021/12/21 03:26:18;;;;;;;10.02;5.35;;;-2.60;99.90;;;;;;5105866;28;20036;-63
2021/12/21 03:28:43;;;;;;;9.25;6.45;;;-2.60;99.90;;;;;;5106601;28;20040;-63
2021/12/21 03:31:10;;;;;;;9.27;5.93;;;-2.60;99.90;;;;;;5112429;28;20082;-63
2021/12/21 03:33:36;;;;;;;10.07;5.75;;;-2.70;99.90;;;;;;5106765;28;20047;-63
2021/12/21 03:36:04;;;;;;;9.90;5.18;;;-2.80;99.90;;;;;;5107945;28;20062;-63
2021/12/21 03:38:31;;;;;;;8.90;6.32;;;-2.90;99.90;;;;;;5107076;28;20081;-63
2021/12/21 03:41:02;;;;;;;12.05;6.28;;;-2.90;99.90;;;;;;5107304;28;20044;-63
2021/12/21 03:43:32;;;;;;;12.02;6.70;;;-3.00;99.90;;;;;;5099489;28;20044;-63
2021/12/21 03:46:07;;;;;;;11.88;7.32;;;-3.00;99.90;;;;;;5110231;28;20051;-63
2021/12/21 03:48:34;;;;;;;9.10;6.97;;;-3.00;99.90;;;;;;5106204;28;20270;-63
2021/12/21 03:51:00;;;;;;;15.98;7.97;;;-3.00;99.90;;;;;;5103414;28;20055;-63
2021/12/21 03:53:25;;;;;;;10.23;6.30;;;-3.10;99.90;;;;;;5089116;28;20040;-63
2021/12/21 03:56:02;;;;;;;10.57;6.57;;;-3.10;99.90;;;;;;5108274;28;20048;-63
2021/12/21 03:58:28;;;;;;;12.70;6.30;;;-3.20;99.90;;;;;;5102162;28;20055;-63
2021/12/21 04:00:54;;;;;;;11.70;6.38;;;-3.10;99.90;;;;;;5105310;28;20048;-63
2021/12/21 04:03:20;;;;;;;10.60;7.38;;;-3.10;99.90;;;;;;5105832;28;20051;-63
2021/12/21 04:05:45;;;;;;;9.95;7.43;;;-3.10;99.90;;;;;;5110980;28;20082;-63
2021/12/21 04:08:11;;;;;;;13.82;7.38;;;-3.10;99.90;;;;;;5106436;28;20036;-63
2021/12/21 04:10:37;;;;;;;12.10;7.30;;;-3.10;99.90;;;;;;5105749;28;20044;-63
2021/12/21 04:13:02;;;;;;;12.45;7.38;;;-3.10;99.90;;;;;;5103992;28;20036;-63
2021/12/21 04:15:31;;;;;;;14.68;7.90;;;-3.10;99.90;;;;;;5104071;28;20048;-63
2021/12/21 04:17:57;;;;;;;10.23;7.43;;;-3.10;99.90;;;;;;5105258;28;20048;-63
2021/12/21 04:20:23;;;;;;;10.20;7.15;;;-3.10;99.90;;;;;;5103992;28;20043;-63
2021/12/21 04:22:49;;;;;;;11.60;7.53;;;-3.20;99.90;;;;;;5105135;28;20104;-63
2021/12/21 04:25:15;;;;;;;12.43;7.35;;;-3.20;99.90;;;;;;5102592;28;20044;-63
2021/12/21 04:27:41;;;;;;;14.65;7.35;;;-3.20;99.90;;;;;;5105545;28;20408;-63
2021/12/21 04:30:07;;;;;;;12.80;7.72;;;-3.30;99.90;;;;;;5104696;28;20103;-63
2021/12/21 04:32:32;;;;;;;9.95;6.97;;;-3.20;99.90;;;;;;5103503;28;20052;-63
2021/12/21 04:34:58;;;;;;;9.18;7.00;;;-3.20;99.90;;;;;;5105953;28;20120;-63
2021/12/21 04:37:25;;;;;;;11.23;7.25;;;-3.20;99.90;;;;;;5104862;28;20052;-63
2021/12/21 04:40:03;;;;;;;16.10;6.60;;;-3.20;99.90;;;;;;5104825;28;20050;-63
2021/12/21 04:42:29;;;;;;;10.07;6.85;;;-3.20;99.90;;;;;;5098862;28;20122;-63
2021/12/21 04:44:55;;;;;;;10.35;6.45;;;-3.10;99.90;;;;;;5104884;28;20040;-63
2021/12/21 04:47:21;;;;;;;13.80;7.05;;;-3.10;99.90;;;;;;5105640;28;20040;-63
2021/12/21 04:49:46;;;;;;;11.07;6.53;;;-3.20;99.90;;;;;;5107443;28;20043;-63
2021/12/21 04:52:12;;;;;;;11.70;7.13;;;-3.20;99.90;;;;;;5105219;28;20060;-63
2021/12/21 04:54:39;;;;;;;13.18;7.15;;;-3.20;99.90;;;;;;5105972;28;20074;-63
2021/12/21 04:57:06;;;;;;;13.27;6.97;;;-3.20;99.90;;;;;;5104727;28;20043;-63
2021/12/21 04:59:31;;;;;;;10.02;6.38;;;-3.20;99.90;;;;;;5104724;28;20040;-63
2021/12/21 05:01:57;;;;;;;9.60;6.53;;;-3.20;99.90;;;;;;5096843;28;20055;-63
2021/12/21 05:04:23;;;;;;;15.55;8.20;;;-3.30;99.90;;;;;;5104800;28;20059;-63
2021/12/21 05:06:49;;;;;;;13.35;7.53;;;-3.20;99.90;;;;;;5103369;28;20047;-63
2021/12/21 05:09:24;;;;;;;12.30;6.85;;;-3.20;99.90;;;;;;5103516;28;20061;-63
2021/12/21 05:11:50;;;;;;;11.07;6.90;;;-3.20;99.90;;;;;;5104497;28;20048;-63
2021/12/21 05:14:16;;;;;;;11.85;7.47;;;-3.20;99.90;;;;;;5098527;28;20040;-63
2021/12/21 05:16:41;;;;;;;14.65;7.55;;;-3.30;99.90;;;;;;5100017;28;20569;-63
2021/12/21 05:19:07;;;;;;;13.80;6.95;;;-3.30;99.90;;;;;;5104219;28;20102;-63
2021/12/21 05:21:33;;;;;;;10.20;7.07;;;-3.40;99.90;;;;;;5085938;28;20060;-63
2021/12/21 05:23:59;;;;;;;9.77;7.03;;;-3.40;99.90;;;;;;5104276;28;20036;-63
2021/12/21 05:26:25;;;;;;;11.85;7.55;;;-3.50;99.90;;;;;;5119881;28;20054;-63
2021/12/21 05:28:51;;;;;;;10.85;7.53;;;-3.50;99.90;;;;;;5103058;28;20040;-63
2021/12/21 05:31:17;;;;;;;8.63;5.75;;;-3.50;99.90;;;;;;5104398;28;20048;-63
2021/12/21 05:33:44;;;;;;;11.13;6.68;;;-3.60;99.90;;;;;;5104004;28;20081;-63
2021/12/21 05:36:10;;;;;;;8.77;6.57;;;-3.50;99.90;;;;;;5102806;28;20048;-63
2021/12/21 05:38:36;;;;;;;7.97;5.72;;;-3.40;99.90;;;;;;5103246;28;20109;-63
2021/12/21 05:41:06;;;;;;;10.20;6.50;;;-3.40;99.90;;;;;;5119552;28;20112;-63
2021/12/21 05:43:31;;;;;;;13.20;7.07;;;-3.40;99.90;;;;;;5103828;28;20044;-63
2021/12/21 05:45:57;;;;;;;12.45;6.93;;;-3.30;99.90;;;;;;5103707;28;20050;-63
2021/12/21 05:48:23;;;;;;;11.00;6.32;;;-3.30;99.90;;;;;;5101984;28;20044;-63
2021/12/21 05:50:48;;;;;;;10.73;7.78;;;-3.30;99.90;;;;;;5104730;28;20198;-63
2021/12/21 05:53:14;;;;;;;10.57;6.80;;;-3.30;99.90;;;;;;5121310;28;20099;-63
2021/12/21 05:55:40;;;;;;;8.45;6.50;;;-3.20;99.90;;;;;;5105156;28;20326;-63
2021/12/21 05:58:06;;;;;;;10.77;6.45;;;-3.20;99.90;;;;;;5104543;28;20095;-63
2021/12/21 06:00:34;;;;;;;10.45;6.00;;;-3.30;99.90;;;;;;5106480;28;20044;-63
2021/12/21 06:03:01;;;;;;;10.82;5.88;;;-3.40;99.90;;;;;;5102982;28;20066;-63
2021/12/21 06:05:27;;;;;;;9.80;6.63;;;-3.50;99.90;;;;;;5102791;28;20097;-63
2021/12/21 06:07:54;;;;;;;11.55;7.30;;;-3.60;99.90;;;;;;5104451;28;20032;-62
2021/12/21 06:10:37;;;;;;;10.40;6.05;;;-3.50;99.90;;;;;;5110238;28;20048;-63
2021/12/21 06:26:16;;;;;;;10.43;6.03;;;-3.50;99.90;;;;;;5051081;28;20036;-63
2021/12/21 06:28:43;;;;;;;12.07;7.00;;;-3.50;99.90;;;;;;5058493;28;20068;-63
2021/12/21 06:31:09;;;;;;;9.43;5.80;;;-3.50;99.90;;;;;;5092171;28;20059;-63
2021/12/21 06:33:35;;;;;;;10.30;5.75;;;-3.40;99.90;;;;;;5068487;28;20043;-63
2021/12/21 06:36:02;;;;;;;13.50;5.78;;;-3.40;99.90;;;;;;5070845;28;20459;-63
2021/12/21 06:38:29;;;;;;;9.65;6.25;;;-3.40;99.90;;;;;;5083112;28;20805;-63
2021/12/21 06:40:55;;;;;;;8.32;5.45;;;-3.30;99.90;;;;;;5090397;28;20048;-62
2021/12/21 06:43:21;;;;;;;9.82;5.68;;;-3.30;99.90;;;;;;5092138;28;20042;-65
2021/12/21 06:53:49;;;;;;;8.20;5.32;;;-3.60;99.90;;;;;;5089636;28;20063;-64
2021/12/21 06:56:16;;;;;;;9.25;6.30;;;-3.70;99.90;;;;;;5090133;28;20037;-62
2021/12/21 06:58:42;;;;;;;9.93;5.32;;;-3.70;99.90;;;;;;5065262;28;20063;-63
2021/12/21 07:01:08;;;;;;;10.32;5.78;;;-3.70;99.90;;;;;;5063030;28;20052;-63
2021/12/21 07:03:34;;;;;;;8.85;5.93;;;-3.70;99.90;;;;;;5069906;28;20040;-62
2021/12/21 07:06:01;;;;;;;9.73;5.57;;;-3.70;99.90;;;;;;5080528;28;20100;-62
2021/12/21 07:08:30;;;;;;;9.25;5.65;;;-3.80;99.90;;;;;;5079128;28;20052;-63
2021/12/21 07:19:03;;;;;;;8.27;5.13;;;-3.80;99.90;;;;;;5074166;28;20044;-61
2021/12/21 07:21:29;;;;;;;10.02;5.55;;;-3.70;99.90;;;;;;5097740;28;20070;-61
2021/12/21 07:23:54;;;;;;;8.48;5.35;;;-3.70;99.90;;;;;;5091035;28;20068;-61
2021/12/21 07:26:20;;;;;;;8.73;5.57;;;-3.70;99.90;;;;;;5097715;28;20086;-61
2021/12/21 07:28:46;;;;;;;14.07;5.55;;;-3.60;99.90;;;;;;5073289;28;20058;-61
2021/12/21 07:31:12;;;;;;;10.50;6.05;;;-3.60;99.90;;;;;;5096432;28;20048;-62
2021/12/21 07:33:38;;;;;;;10.13;6.60;;;-3.60;99.90;;;;;;5098140;28;20071;-65
2021/12/21 07:36:04;;;;;;;9.52;6.07;;;-3.60;99.90;;;;;;5109181;28;20048;-62
2021/12/21 07:38:32;;;;;;;9.73;6.32;;;-3.60;99.90;;;;;;5100303;28;20563;-61
2021/12/21 07:40:58;;;;;;;11.45;6.97;;;-3.60;99.90;;;;;;5090952;28;20047;-62
2021/12/21 07:43:24;;;;;;;10.68;7.05;;;-3.60;99.90;;;;;;5098444;28;20446;-64
2021/12/21 07:45:50;;;;;;;10.85;6.43;;;-3.60;99.90;;;;;;5104036;28;20043;-62
2021/12/21 07:48:16;;;;;;;10.20;6.93;;;-3.50;99.90;;;;;;5097891;28;20063;-62
2021/12/21 07:50:44;;;;;;;13.07;6.45;;;-3.40;99.90;;;;;;5090472;27;20184;-62
2021/12/21 07:53:09;;;;;;;9.90;6.55;;;-3.50;99.90;;;;;;5109789;28;20043;-62
2021/12/21 07:55:35;;;;;;;9.50;6.22;;;-3.50;99.90;;;;;;5067023;28;20440;-62
2021/12/21 07:58:01;;;;;;;11.02;6.57;;;-3.50;99.90;;;;;;5081690;28;20047;-62
2021/12/21 08:00:27;;;;;;;12.55;6.85;;;-3.50;99.90;;;;;;5069210;28;20063;-62
2021/12/21 08:02:54;;;;;;;9.75;6.28;;;-3.40;99.90;;;;;;5077444;28;20050;-62
2021/12/21 08:05:20;;;;;;;9.02;6.35;;;-3.40;99.90;;;;;;5054324;28;20048;-62
2021/12/21 08:07:57;;;;;;;15.30;7.40;;;-3.40;99.90;;;;;;5077143;28;20414;-62
2021/12/21 08:10:28;;;;;;;11.70;6.68;;;-3.40;99.90;;;;;;5078568;28;20083;-62
2021/12/21 08:12:56;;;;;;;9.75;6.72;;;-3.60;99.90;;;;;;5065398;28;20548;-63
2021/12/21 08:15:23;;;;;;;12.02;7.30;;;-3.70;99.90;;;;;;5079018;28;20056;-63
2021/12/21 08:17:50;;;;;;;14.57;7.05;;;-3.70;99.90;;;;;;5079733;28;20041;-62
2021/12/21 08:20:16;;;;;;;10.52;6.70;;;-3.60;99.90;;;;;;5071619;28;20635;-62
2021/12/21 08:22:42;;;;;;;9.45;6.55;;;-3.60;99.90;;;;;;5091666;28;20040;-61
2021/12/21 08:25:08;;;;;;;12.93;7.47;;;-3.50;99.90;;;;;;5097055;28;20139;-61
2021/12/21 08:27:34;;;;;;;13.07;7.00;;;-3.50;99.90;;;;;;5101655;28;20071;-61
2021/12/21 08:30:00;;;;;;;11.77;7.22;;;-3.40;99.90;;;;;;5090643;28;20055;-61
2021/12/21 08:32:26;;;;;;;9.82;7.13;;;-3.40;99.90;;;;;;5098398;28;20100;-61
2021/12/21 08:34:51;;;;;;;13.00;7.75;;;-3.40;99.90;;;;;;5088253;28;20055;-61
2021/12/21 08:37:17;;;;;;;14.98;8.20;;;-3.40;99.90;;;;;;5093114;28;20068;-61
2021/12/21 08:39:43;;;;;;;12.23;7.50;;;-3.30;99.90;;;;;;5093083;28;20044;-61
2021/12/21 08:42:14;;;;;;;11.93;7.65;;;-3.20;99.90;;;;;;5098475;28;20064;-61
2021/12/21 08:44:41;;;;;;;11.30;7.50;;;-3.20;99.90;;;;;;5088618;28;20059;-61
2021/12/21 08:47:07;;;;;;;11.93;7.85;;;-3.20;99.90;;;;;;5077335;28;20389;-61
2021/12/21 08:49:34;;;;;;;8.38;6.18;;;-3.20;99.90;;;;;;5092815;28;20051;-61
2021/12/21 08:52:00;;;;;;;10.35;7.15;;;-3.20;99.90;;;;;;5106711;28;20497;-61
2021/12/21 08:54:25;;;;;;;9.23;7.32;;;-3.10;99.90;;;;;;5089637;28;20566;-61
2021/12/21 08:56:51;;;;;;;13.70;8.07;;;-3.20;99.90;;;;;;5081197;28;20062;-61
2021/12/21 08:59:18;;;;;;;15.35;7.95;;;-3.10;99.90;;;;;;5083012;28;20036;-61
2021/12/21 09:01:45;;;;;;;16.88;8.55;;;-3.00;99.90;;;;;;5083564;28;20122;-60
2021/12/21 09:04:14;;;;;;;14.27;9.13;;;-3.00;99.90;;;;;;5064120;28;20040;-62
2021/12/21 09:06:40;;;;;;;17.10;10.23;;;-2.90;99.90;;;;;;5092596;28;20037;-61
2021/12/21 09:09:06;;;;;;;18.85;11.60;;;-2.90;99.90;;;;;;5063184;28;20097;-61
2021/12/21 09:11:32;;;;;;;15.88;8.65;;;-2.70;99.90;;;;;;5075823;28;20048;-61
2021/12/21 09:13:57;;;;;;;17.58;10.45;;;-2.70;99.90;;;;;;5060955;28;20434;-61
2021/12/21 09:16:23;;;;;;;16.95;10.85;;;-2.60;99.90;;;;;;5071587;28;20131;-60
2021/12/21 09:18:49;;;;;;;16.13;10.85;;;-2.60;99.90;;;;;;5077249;28;20068;-61
2021/12/21 09:21:15;;;;;;;21.83;15.05;;;-2.50;99.90;;;;;;5074968;28;20173;-60
2021/12/21 09:23:41;;;;;;;18.58;13.07;;;-2.40;99.90;;;;;;5078549;28;20063;-61
2021/12/21 09:26:07;;;;;;;21.75;14.05;;;-2.30;99.90;;;;;;5061338;28;20048;-61
2021/12/21 09:28:33;;;;;;;21.52;14.05;;;-2.10;99.90;;;;;;5074774;28;20095;-61
2021/12/21 09:30:59;;;;;;;23.92;13.73;;;-2.00;99.90;;;;;;5060083;28;20136;-63
2021/12/21 09:33:24;;;;;;;19.40;13.02;;;-1.90;99.90;;;;;;5073765;28;20044;-61
2021/12/21 09:35:52;;;;;;;23.95;13.75;;;-1.90;99.90;;;;;;5078343;28;20102;-61
2021/12/21 09:38:18;;;;;;;19.08;12.80;;;-1.80;99.90;;;;;;5096799;28;20052;-61
2021/12/21 09:40:44;;;;;;;17.85;12.90;;;-1.80;99.90;;;;;;5069006;28;20102;-61
2021/12/21 09:43:11;;;;;;;19.50;12.43;;;-1.80;99.90;;;;;;5084325;28;20109;-62
2021/12/21 09:45:38;;;;;;;21.45;15.23;;;-1.70;99.90;;;;;;5102755;28;20080;-62
2021/12/21 09:48:06;;;;;;;27.48;18.33;;;-1.70;99.90;;;;;;5117801;28;20044;-60
2021/12/21 09:50:33;;;;;;;32.50;19.50;;;-1.50;99.90;;;;;;5091744;28;20062;-60
2021/12/21 09:52:58;;;;;;;28.48;19.42;;;-1.40;99.90;;;;;;5080511;28;20103;-60
2021/12/21 09:55:25;;;;;;;32.88;20.42;;;-1.20;99.90;;;;;;5075343;28;20461;-59
2021/12/21 09:57:52;;;;;;;33.58;20.73;;;-1.10;99.90;;;;;;5090429;28;20068;-59
2021/12/21 10:00:24;;;;;;;33.53;21.83;;;-1.00;99.90;;;;;;5077944;28;20070;-60
2021/12/21 10:02:51;;;;;;;32.53;19.55;;;-0.90;99.90;;;;;;5074086;28;20032;-60
2021/12/21 10:05:20;;;;;;;26.63;18.75;;;-0.80;99.90;;;;;;5060133;28;20048;-60
2021/12/21 10:08:06;;;;;;;23.80;17.75;;;-0.60;99.90;;;;;;5070239;28;20181;-60
2021/12/21 10:10:34;;;;;;;29.25;18.00;;;-0.50;99.90;;;;;;5073803;28;20044;-61
2021/12/21 10:13:27;;;;;;;25.13;16.90;;;-0.40;99.90;;;;;;5060807;28;20059;-61
2021/12/21 10:16:02;;;;;;;25.02;16.42;;;-0.30;99.90;;;;;;5065806;28;20060;-61
2021/12/21 10:18:34;;;;;;;20.65;16.17;;;-0.20;99.90;;;;;;5095223;28;20051;-63
2021/12/21 10:21:05;;;;;;;25.02;15.60;;;-0.10;99.90;;;;;;5075831;28;20059;-61
2021/12/21 10:23:34;;;;;;;25.50;15.70;;;0.00;99.90;;;;;;5082278;28;20394;-63
2021/12/21 10:26:07;;;;;;;25.42;17.88;;;0.00;99.90;;;;;;5097515;28;20504;-63
2021/12/21 10:29:00;;;;;;;23.88;15.23;;;0.10;99.90;;;;;;5113071;28;20059;-63
2021/12/21 10:31:35;;;;;;;24.05;17.65;;;0.20;99.90;;;;;;5099687;28;20442;-63
2021/12/21 10:34:03;;;;;;;28.65;19.83;;;0.20;99.90;;;;;;5117913;28;20036;-61
2021/12/21 10:36:30;;;;;;;32.22;19.50;;;0.20;99.90;;;;;;5072701;28;20055;-61
2021/12/21 10:38:58;;;;;;;25.45;19.38;;;0.30;99.90;;;;;;5068003;28;20064;-61
2021/12/21 10:41:36;;;;;;;25.13;18.50;;;0.40;99.90;;;;;;5068541;28;20125;-63
2021/12/21 10:44:05;;;;;;;25.38;19.27;;;0.50;99.90;;;;;;5100329;28;20547;-63
2021/12/21 10:46:35;;;;;;;30.83;18.23;;;0.50;99.90;;;;;;5087728;28;20044;-63
2021/12/21 10:49:19;;;;;;;18.77;14.13;;;0.60;99.90;;;;;;5100806;28;20304;-63
2021/12/21 10:51:57;;;;;;;26.42;18.20;;;0.70;99.90;;;;;;5064334;28;20091;-63
2021/12/21 10:54:39;;;;;;;22.85;17.50;;;0.70;99.90;;;;;;5080899;28;20244;-63
2021/12/21 10:57:15;;;;;;;24.10;16.80;;;0.80;99.90;;;;;;5076844;28;20063;-63
2021/12/21 10:59:45;;;;;;;24.73;16.05;;;0.90;99.90;;;;;;5091540;28;20047;-61
2021/12/21 11:02:15;;;;;;;29.95;16.63;;;0.90;99.90;;;;;;5101332;28;20032;-63
2021/12/21 11:04:44;;;;;;;23.55;15.65;;;1.00;99.90;;;;;;5109816;27;20035;-62
2021/12/21 11:10:00;;;;;;;21.67;14.52;;;1.20;99.90;;;;;;5069232;28;20531;-62
2021/12/21 11:12:28;;;;;;;19.48;14.82;;;1.30;99.90;;;;;;5070447;28;20129;-62
2021/12/21 11:14:57;;;;;;;19.77;14.57;;;1.40;99.90;;;;;;5074121;28;20736;-62
2021/12/21 11:17:24;;;;;;;20.40;15.20;;;1.40;99.90;;;;;;5079208;28;20039;-62
2021/12/21 11:19:53;;;;;;;21.90;14.57;;;1.40;99.90;;;;;;5069707;28;20083;-62
2021/12/21 11:22:21;;;;;;;17.93;13.40;;;1.50;99.90;;;;;;5081702;28;20040;-62
2021/12/21 11:24:48;;;;;;;22.17;15.18;;;1.60;99.90;;;;;;5057817;28;20070;-62
2021/12/21 11:27:15;;;;;;;20.77;14.63;;;1.60;99.90;;;;;;5082116;28;20082;-61
2021/12/21 11:29:43;;;;;;;23.40;15.02;;;1.60;99.90;;;;;;5069896;28;20547;-62
2021/12/21 11:32:12;;;;;;;24.40;15.32;;;1.70;99.90;;;;;;5098098;28;20059;-60
2021/12/21 11:34:57;;;;;;;22.42;14.48;;;1.70;99.90;;;;;;5072450;28;20036;-60
2021/12/21 11:37:27;;;;;;;21.80;13.93;;;1.70;99.90;;;;;;5084550;28;20067;-60
2021/12/21 11:39:54;;;;;;;22.77;15.57;;;1.70;99.90;;;;;;5075000;28;20060;-60
2021/12/21 11:42:26;;;;;;;20.55;14.32;;;1.70;99.90;;;;;;5101899;28;20035;-61
2021/12/21 11:45:17;;;;;;;18.30;13.30;;;1.80;99.90;;;;;;5085558;28;20073;-61
2021/12/21 11:48:05;;;;;;;18.58;12.82;;;1.80;99.90;;;;;;5097503;28;20050;-61
2021/12/21 11:50:32;;;;;;;16.55;12.45;;;1.90;99.90;;;;;;5052860;28;20555;-61
2021/12/21 11:53:06;;;;;;;19.10;12.98;;;1.90;99.90;;;;;;5088264;28;20050;-61
2021/12/21 11:55:35;;;;;;;16.73;12.85;;;1.90;99.90;;;;;;5096693;27;20127;-61
2021/12/21 11:58:14;;;;;;;19.85;12.75;;;2.00;99.90;;;;;;5126767;27;20043;-61
2021/12/21 12:00:50;;;;;;;18.27;12.55;;;2.00;99.90;;;;;;5085091;28;20051;-61
2021/12/21 12:03:20;;;;;;;19.15;12.20;;;2.10;99.90;;;;;;5109186;28;20043;-61
2021/12/21 12:05:54;;;;;;;17.98;11.20;;;2.20;99.90;;;;;;5096836;28;20063;-61
2021/12/21 12:08:22;;;;;;;17.10;11.60;;;2.20;99.90;;;;;;5089158;28;20048;-61
2021/12/21 12:10:56;;;;;;;16.77;11.65;;;2.30;99.90;;;;;;5097199;28;20051;-61
2021/12/21 12:13:40;;;;;;;19.92;11.45;;;2.30;99.90;;;;;;5096228;28;20060;-61
2021/12/21 12:16:10;;;;;;;15.85;10.55;;;2.30;99.90;;;;;;5079798;27;20056;-61
2021/12/21 12:18:37;;;;;;;;;;;2.40;99.90;;;;;;5094662;28;20054;-61
2021/12/21 12:21:13;;;;;;;19.33;10.32;;;2.40;99.90;;;;;;5088865;28;19924;-61
2021/12/21 12:23:46;;;;;;;16.13;11.00;;;2.40;99.90;;;;;;5092960;28;20048;-61
2021/12/21 12:26:26;;;;;;;16.02;10.55;;;2.50;99.90;;;;;;5070196;28;20044;-60
2021/12/21 12:28:54;;;;;;;17.33;10.30;;;2.40;99.90;;;;;;5098859;28;20047;-60
2021/12/21 12:31:34;;;;;;;17.40;10.70;;;2.50;99.90;;;;;;5101946;27;20059;-60
2021/12/21 12:34:00;;;;;;;17.55;10.85;;;2.40;99.90;;;;;;5119908;28;20055;-60
2021/12/21 12:36:47;;;;;;;16.17;10.45;;;2.50;99.90;;;;;;5074919;28;20172;-59
2021/12/21 12:39:27;;;;;;;18.30;10.45;;;2.50;99.90;;;;;;5098871;28;20111;-59
2021/12/21 12:41:53;;;;;;;19.50;9.80;;;2.50;99.90;;;;;;5072006;28;20613;-59
2021/12/21 12:44:24;;;;;;;15.07;10.82;;;2.60;99.90;;;;;;5100792;28;20036;-59
2021/12/21 12:46:55;;;;;;;15.52;10.07;;;2.60;99.90;;;;;;5086549;28;20149;-59
2021/12/21 12:49:23;;;;;;;15.05;10.27;;;2.60;99.90;;;;;;5098022;28;20063;-59
2021/12/21 12:51:49;;;;;;;19.83;9.95;;;2.50;99.90;;;;;;5071242;28;20101;-59
2021/12/21 12:54:21;;;;;;;19.42;11.63;;;2.50;99.90;;;;;;5079137;28;20306;-59
2021/12/21 12:56:48;;;;;;;15.05;10.93;;;2.60;99.90;;;;;;5100765;28;20067;-59
2021/12/21 12:59:14;;;;;;;14.85;10.70;;;2.60;99.90;;;;;;5105005;28;20044;-59
2021/12/21 13:01:46;;;;;;;16.63;10.52;;;2.60;99.90;;;;;;5116022;27;20146;-59
2021/12/21 13:04:14;;;;;;;17.27;11.07;;;2.60;99.90;;;;;;5102459;28;20043;-59
2021/12/21 13:06:43;;;;;;;16.67;10.68;;;2.60;99.90;;;;;;5089360;28;20083;-59
2021/12/21 13:09:12;;;;;;;16.25;10.27;;;2.60;99.90;;;;;;5116208;28;20044;-59
2021/12/21 13:11:40;;;;;;;20.90;10.43;;;2.60;99.90;;;;;;5099596;28;20121;-61
2021/12/21 13:14:08;;;;;;;17.45;10.43;;;2.60;99.90;;;;;;5075526;28;20064;-59
2021/12/21 13:16:36;;;;;;;19.35;10.77;;;2.70;99.90;;;;;;5086647;28;20052;-60
2021/12/21 13:19:09;;;;;;;20.05;11.77;;;2.70;99.90;;;;;;5102004;28;20028;-62
2021/12/21 13:21:37;;;;;;;16.77;11.45;;;2.70;99.90;;;;;;5064425;28;20528;-60
2021/12/21 13:24:18;;;;;;;19.83;11.98;;;2.60;99.90;;;;;;5079554;28;20097;-62
2021/12/21 13:26:55;;;;;;;19.67;12.02;;;2.60;99.90;;;;;;5086099;28;20356;-59
2021/12/21 13:29:31;;;;;;;18.25;10.98;;;2.60;99.90;;;;;;5117038;28;20080;-61
2021/12/21 13:31:59;;;;;;;18.80;11.43;;;2.60;99.90;;;;;;5089055;28;20056;-64
2021/12/21 13:34:27;;;;;;;16.88;10.75;;;2.60;99.90;;;;;;5078687;28;20048;-63
2021/12/21 13:36:58;;;;;;;16.80;10.85;;;2.60;99.90;;;;;;5107295;27;20096;-61
2021/12/21 13:39:32;;;;;;;18.50;10.55;;;2.60;99.90;;;;;;5099034;28;20100;-61
2021/12/21 13:42:00;;;;;;;14.57;11.02;;;2.70;99.90;;;;;;5071787;28;20178;-61
2021/12/21 13:44:30;;;;;;;17.88;10.63;;;2.60;99.90;;;;;;5078522;28;20081;-61
2021/12/21 13:47:00;;;;;;;21.13;11.45;;;2.70;99.90;;;;;;5069538;28;20543;-61
2021/12/21 13:49:26;;;;;;;15.93;10.73;;;2.70;99.90;;;;;;5076942;28;20075;-61